Map

Track Data

SID SEASON NUMBER BASIN SUBBASIN NAME ISO_TIME NATURE LAT LON WMO_WIND WMO_PRES WMO_AGENCY TRACK_TYPE DIST2LAND LANDFALL IFLAG USA_AGENCY USA_ATCF_ID USA_LAT USA_LON USA_RECORD USA_STATUS USA_WIND USA_PRES USA_SSHS USA_R34_NE USA_R34_SE USA_R34_SW USA_R34_NW USA_R50_NE USA_R50_SE USA_R50_SW USA_R50_NW USA_R64_NE USA_R64_SE USA_R64_SW USA_R64_NW USA_POCI USA_ROCI USA_RMW USA_EYE TOKYO_LAT TOKYO_LON TOKYO_GRADE TOKYO_WIND TOKYO_PRES TOKYO_R50_DIR TOKYO_R50_LONG TOKYO_R50_SHORT TOKYO_R30_DIR TOKYO_R30_LONG TOKYO_R30_SHORT TOKYO_LAND CMA_LAT CMA_LON CMA_CAT CMA_WIND CMA_PRES HKO_LAT HKO_LON HKO_CAT HKO_WIND HKO_PRES NEWDELHI_LAT NEWDELHI_LON NEWDELHI_GRADE NEWDELHI_WIND NEWDELHI_PRES NEWDELHI_CI NEWDELHI_DP NEWDELHI_POCI REUNION_LAT REUNION_LON REUNION_TYPE REUNION_WIND REUNION_PRES REUNION_TNUM REUNION_CI REUNION_RMW REUNION_R34_NE REUNION_R34_SE REUNION_R34_SW REUNION_R34_NW REUNION_R50_NE REUNION_R50_SE REUNION_R50_SW REUNION_R50_NW REUNION_R64_NE REUNION_R64_SE REUNION_R64_SW REUNION_R64_NW BOM_LAT BOM_LON BOM_TYPE BOM_WIND BOM_PRES BOM_TNUM BOM_CI BOM_RMW BOM_R34_NE BOM_R34_SE BOM_R34_SW BOM_R34_NW BOM_R50_NE BOM_R50_SE BOM_R50_SW BOM_R50_NW BOM_R64_NE BOM_R64_SE BOM_R64_SW BOM_R64_NW BOM_ROCI BOM_POCI BOM_EYE BOM_POS_METHOD BOM_PRES_METHOD NADI_LAT NADI_LON NADI_CAT NADI_WIND NADI_PRES WELLINGTON_LAT WELLINGTON_LON WELLINGTON_WIND WELLINGTON_PRES DS824_LAT DS824_LON DS824_STAGE DS824_WIND DS824_PRES TD9636_LAT TD9636_LON TD9636_STAGE TD9636_WIND TD9636_PRES TD9635_LAT TD9635_LON TD9635_WIND TD9635_PRES TD9635_ROCI NEUMANN_LAT NEUMANN_LON NEUMANN_CLASS NEUMANN_WIND NEUMANN_PRES MLC_LAT MLC_LON MLC_CLASS MLC_WIND MLC_PRES USA_GUST BOM_GUST BOM_GUST_PER REUNION_GUST REUNION_GUST_PER USA_SEAHGT USA_SEARAD_NE USA_SEARAD_SE USA_SEARAD_SW USA_SEARAD_NW STORM_SPEED STORM_DIR
1884071S11091 1884 7 SI WA NOT_NAMED 1884-03-11 00:00:00 TS -10.7000 90.5000 main 1370 1370 _________O____ -1 -10.7000 90.5000 TC 7 245
1884071S11091 1884 7 SI WA NOT_NAMED 1884-03-11 03:00:00 TS -10.8576 90.1601 main 1409 1409 _________P____ -1 -10.8576 90.1601 TC 8 246
1884071S11091 1884 7 SI MM NOT_NAMED 1884-03-11 06:00:00 TS -11.0000 89.8000 main 1448 1448 _________O____ -1 -11.0000 89.8000 TC 8 251
1884071S11091 1884 7 SI MM NOT_NAMED 1884-03-11 09:00:00 TS -11.1150 89.4075 main 1486 1486 _________P____ -1 -11.1150 89.4075 TC 8 256
1884071S11091 1884 7 SI MM NOT_NAMED 1884-03-11 12:00:00 TS -11.2000 89.0000 main 1526 1526 _________O____ -1 -11.2000 89.0000 TC 8 260
1884071S11091 1884 7 SI MM NOT_NAMED 1884-03-11 15:00:00 TS -11.2499 88.5999 main 1558 1558 _________P____ -1 -11.2499 88.5999 TC 8 263
1884071S11091 1884 7 SI MM NOT_NAMED 1884-03-11 18:00:00 TS -11.3000 88.2000 main 1597 1597 _________O____ -1 -11.3000 88.2000 TC 8 260
1884071S11091 1884 7 SI MM NOT_NAMED 1884-03-11 21:00:00 TS -11.3925 87.7925 main 1638 1638 _________P____ -1 -11.3925 87.7925 TC 8 256
1884071S11091 1884 7 SI MM NOT_NAMED 1884-03-12 00:00:00 TS -11.5000 87.4000 main 1678 1678 _________O____ -1 -11.5000 87.4000 TC 8 255
1884071S11091 1884 7 SI MM NOT_NAMED 1884-03-12 03:00:00 TS -11.5924 87.0424 main 1719 1719 _________P____ -1 -11.5924 87.0424 TC 7 254
1884071S11091 1884 7 SI MM NOT_NAMED 1884-03-12 06:00:00 TS -11.7000 86.7000 main 1751 1751 _________O____ -1 -11.7000 86.7000 TC 7 250
1884071S11091 1884 7 SI MM NOT_NAMED 1884-03-12 09:00:00 TS -11.8424 86.3575 main 1784 1784 _________P____ -1 -11.8424 86.3575 TC 7 246
1884071S11091 1884 7 SI MM NOT_NAMED 1884-03-12 12:00:00 TS -12.0000 86.0000 main 1832 1832 _________O____ -1 -12.0000 86.0000 TC 8 247
1884071S11091 1884 7 SI MM NOT_NAMED 1884-03-12 15:00:00 TS -12.1500 85.6075 main 1873 1873 _________P____ -1 -12.1500 85.6075 TC 8 249
1884071S11091 1884 7 SI MM NOT_NAMED 1884-03-12 18:00:00 TS -12.3000 85.2000 main 1921 1921 _________O____ -1 -12.3000 85.2000 TC 8 249
1884071S11091 1884 7 SI MM NOT_NAMED 1884-03-12 21:00:00 TS -12.4499 84.7999 main 1963 1963 _________P____ -1 -12.4499 84.7999 TC 8 249
1884071S11091 1884 7 SI MM NOT_NAMED 1884-03-13 00:00:00 TS -12.6000 84.4000 main 2011 2011 _________O____ -1 -12.6000 84.4000 TC 8 249
1884071S11091 1884 7 SI MM NOT_NAMED 1884-03-13 03:00:00 TS -12.7499 84.0000 main 2053 2053 _________P____ -1 -12.7499 84.0000 TC 8 249
1884071S11091 1884 7 SI MM NOT_NAMED 1884-03-13 06:00:00 TS -12.9000 83.6000 main 2101 2101 _________O____ -1 -12.9000 83.6000 TC 8 249
1884071S11091 1884 7 SI MM NOT_NAMED 1884-03-13 09:00:00 TS -13.0499 83.2000 main 2136 2136 _________P____ -1 -13.0499 83.2000 TC 8 249
1884071S11091 1884 7 SI MM NOT_NAMED 1884-03-13 12:00:00 TS -13.2000 82.8000 main 2153 2152 _________O____ -1 -13.2000 82.8000 TC 8 249
1884071S11091 1884 7 SI MM NOT_NAMED 1884-03-13 15:00:00 TS -13.3424 82.3999 main 2160 2160 _________P____ -1 -13.3424 82.3999 TC 8 249
1884071S11091 1884 7 SI MM NOT_NAMED 1884-03-13 18:00:00 TS -13.5000 82.0000 main 2179 2178 _________O____ -1 -13.5000 82.0000 TC 9 245
1884071S11091 1884 7 SI MM NOT_NAMED 1884-03-13 21:00:00 TS -13.6999 81.6000 main 2198 2198 _________P____ -1 -13.6999 81.6000 TC 9 243
1884071S11091 1884 7 SI MM NOT_NAMED 1884-03-14 00:00:00 TS -13.9000 81.2000 main 2219 2218 _________O____ -1 -13.9000 81.2000 TC 9 246
1884071S11091 1884 7 SI MM NOT_NAMED 1884-03-14 03:00:00 TS -14.0500 80.7924 main 2229 2229 _________P____ -1 -14.0500 80.7924 TC 8 249
1884071S11091 1884 7 SI MM NOT_NAMED 1884-03-14 06:00:00 TS -14.2000 80.4000 main 2251 2251 _________O____ -1 -14.2000 80.4000 TC 8 245
1884071S11091 1884 7 SI MM NOT_NAMED 1884-03-14 09:00:00 TS -14.3924 80.0499 main 2275 2275 _________P____ -1 -14.3924 80.0499 TC 8 239
1884071S11091 1884 7 SI MM NOT_NAMED 1884-03-14 12:00:00 TS -14.6000 79.7000 main 2298 2298 _________O____ -1 -14.6000 79.7000 TC 8 241
1884071S11091 1884 7 SI MM NOT_NAMED 1884-03-14 15:00:00 TS -14.7925 79.3074 main 2323 2311 _________P____ -1 -14.7925 79.3074 TC 9 243
1884071S11091 1884 7 SI MM NOT_NAMED 1884-03-14 18:00:00 TS -15.0000 78.9000 main 2311 2263 _________O____ -1 -15.0000 78.9000 TC 9 240
1884071S11091 1884 7 SI MM NOT_NAMED 1884-03-14 21:00:00 TS -15.2401 78.4977 main 2263 2212 _________P____ -1 -15.2401 78.4977 TC 9 237
1884071S11091 1884 7 SI MM NOT_NAMED 1884-03-15 00:00:00 TS -15.5000 78.1000 main 2212 _________O____ -1 -15.5000 78.1000 TC 9 236

About IBTrACS Database

This database is a web-friendly format of International Best Track Archive for Climate Stewardship (IBTrACS), a global best track data archive curated by NOAA dating back to 1842.

Updated: 2021-12-03